Terminal Aerodrome Forecast
Issued by NWS

Home | Current Version | Previous Version | Text Only | Print | Product List | Glossary On
Versions: 1 2 3 4 5 6 7 8 9 10 11 12 13 14 15 16
500
FTPA31 PHFO 251737
TAFHKO
TAF
PHKO 251737Z 2518/2618 VRB03KT P6SM FEW020 SCT045 SCT070
     FM252000 24012KT P6SM SCT050 SCT080
     FM260400 15009KT P6SM BKN050 BKN080
     FM261200 09006KT P6SM FEW025 SCT045 SCT070=

USA.gov is the U.S. government's official web portal to all federal, state and local government web resources and services.